Terminal Aerodrome Forecast
Issued by NWS Sterling, VA

Current Version | Previous Version | Graphics & Text | Print | Product List | Glossary On
Versions: 1 2 3 4 5 6 7 8 9 10 11 12 13 14 15 16
000
FTUS41 KLWX 071100
TAFMRB
TAF
KMRB 071135Z 0712/0812 22007KT P6SM SCT100
     FM071600 23010G18KT P6SM SCT050
     FM080000 21009KT P6SM BKN050
     FM080400 22005KT P6SM BKN050=

USA.gov is the U.S. government's official web portal to all federal, state and local government web resources and services.